sensor_id;sensor_type;location;lat;lon;timestamp;P1;durP1;ratioP1;P2;durP2;ratioP2
20415;SDS011;10367;52.202;5.996;2023-05-24T00:00:17;11.83;;;9.67;;
20415;SDS011;10367;52.202;5.996;2023-05-24T00:02:48;14.90;;;11.23;;
20415;SDS011;10367;52.202;5.996;2023-05-24T00:05:17;15.53;;;10.67;;
20415;SDS011;10367;52.202;5.996;2023-05-24T00:07:50;11.80;;;10.20;;
20415;SDS011;10367;52.202;5.996;2023-05-24T00:10:19;19.10;;;10.27;;
20415;SDS011;10367;52.202;5.996;2023-05-24T00:12:47;14.83;;;10.90;;
20415;SDS011;10367;52.202;5.996;2023-05-24T00:15:16;17.10;;;9.87;;
20415;SDS011;10367;52.202;5.996;2023-05-24T00:17:45;21.83;;;10.93;;
20415;SDS011;10367;52.202;5.996;2023-05-24T00:20:14;19.03;;;10.87;;
20415;SDS011;10367;52.202;5.996;2023-05-24T00:22:46;27.67;;;11.20;;
20415;SDS011;10367;52.202;5.996;2023-05-24T00:25:16;18.23;;;11.17;;
20415;SDS011;10367;52.202;5.996;2023-05-24T00:27:47;18.30;;;11.40;;
20415;SDS011;10367;52.202;5.996;2023-05-24T00:30:16;22.00;;;11.23;;
20415;SDS011;10367;52.202;5.996;2023-05-24T00:32:46;14.57;;;10.50;;
20415;SDS011;10367;52.202;5.996;2023-05-24T00:35:15;18.60;;;9.43;;
20415;SDS011;10367;52.202;5.996;2023-05-24T00:37:44;20.10;;;10.80;;
20415;SDS011;10367;52.202;5.996;2023-05-24T00:40:13;14.03;;;9.03;;
20415;SDS011;10367;52.202;5.996;2023-05-24T00:42:44;18.07;;;9.60;;
20415;SDS011;10367;52.202;5.996;2023-05-24T00:45:13;11.73;;;9.47;;
20415;SDS011;10367;52.202;5.996;2023-05-24T00:47:44;20.23;;;10.33;;
20415;SDS011;10367;52.202;5.996;2023-05-24T00:50:13;12.13;;;8.93;;
20415;SDS011;10367;52.202;5.996;2023-05-24T00:52:48;18.63;;;9.83;;
20415;SDS011;10367;52.202;5.996;2023-05-24T00:55:19;18.03;;;9.67;;
20415;SDS011;10367;52.202;5.996;2023-05-24T00:57:50;15.53;;;10.20;;
20415;SDS011;10367;52.202;5.996;2023-05-24T01:00:21;15.30;;;9.40;;
20415;SDS011;10367;52.202;5.996;2023-05-24T01:02:50;15.57;;;9.37;;
20415;SDS011;10367;52.202;5.996;2023-05-24T01:05:20;18.43;;;9.97;;
20415;SDS011;10367;52.202;5.996;2023-05-24T01:07:53;18.33;;;9.33;;
20415;SDS011;10367;52.202;5.996;2023-05-24T01:10:31;15.43;;;10.30;;
20415;SDS011;10367;52.202;5.996;2023-05-24T01:13:11;14.57;;;9.57;;
20415;SDS011;10367;52.202;5.996;2023-05-24T01:15:49;13.37;;;9.70;;
20415;SDS011;10367;52.202;5.996;2023-05-24T01:18:23;17.00;;;10.47;;
20415;SDS011;10367;52.202;5.996;2023-05-24T01:21:00;16.80;;;9.87;;
20415;SDS011;10367;52.202;5.996;2023-05-24T01:23:49;20.83;;;9.97;;
20415;SDS011;10367;52.202;5.996;2023-05-24T01:26:31;17.63;;;9.27;;
20415;SDS011;10367;52.202;5.996;2023-05-24T01:29:08;12.53;;;9.03;;
20415;SDS011;10367;52.202;5.996;2023-05-24T01:31:38;17.53;;;10.23;;
20415;SDS011;10367;52.202;5.996;2023-05-24T01:34:07;10.53;;;9.37;;
20415;SDS011;10367;52.202;5.996;2023-05-24T01:36:36;16.20;;;9.13;;
20415;SDS011;10367;52.202;5.996;2023-05-24T01:39:05;12.47;;;9.97;;
20415;SDS011;10367;52.202;5.996;2023-05-24T01:41:37;12.53;;;9.10;;
20415;SDS011;10367;52.202;5.996;2023-05-24T01:44:14;12.27;;;9.13;;
20415;SDS011;10367;52.202;5.996;2023-05-24T01:46:51;18.30;;;9.53;;
20415;SDS011;10367;52.202;5.996;2023-05-24T01:49:39;15.50;;;9.40;;
20415;SDS011;10367;52.202;5.996;2023-05-24T01:52:17;16.17;;;9.07;;
20415;SDS011;10367;52.202;5.996;2023-05-24T01:54:50;13.40;;;10.07;;
20415;SDS011;10367;52.202;5.996;2023-05-24T01:57:20;15.80;;;8.67;;
20415;SDS011;10367;52.202;5.996;2023-05-24T01:59:52;14.83;;;8.87;;
20415;SDS011;10367;52.202;5.996;2023-05-24T02:02:22;17.37;;;8.87;;
20415;SDS011;10367;52.202;5.996;2023-05-24T02:04:51;21.00;;;10.63;;
20415;SDS011;10367;52.202;5.996;2023-05-24T02:07:21;15.83;;;10.17;;
20415;SDS011;10367;52.202;5.996;2023-05-24T02:09:49;13.73;;;9.43;;
20415;SDS011;10367;52.202;5.996;2023-05-24T02:12:18;19.23;;;10.43;;
20415;SDS011;10367;52.202;5.996;2023-05-24T02:14:47;15.73;;;8.17;;
20415;SDS011;10367;52.202;5.996;2023-05-24T02:17:18;16.97;;;9.97;;
20415;SDS011;10367;52.202;5.996;2023-05-24T02:19:48;12.23;;;10.10;;
20415;SDS011;10367;52.202;5.996;2023-05-24T02:22:17;23.90;;;10.03;;
20415;SDS011;10367;52.202;5.996;2023-05-24T02:24:48;14.60;;;9.10;;
20415;SDS011;10367;52.202;5.996;2023-05-24T02:27:16;12.27;;;8.87;;
20415;SDS011;10367;52.202;5.996;2023-05-24T02:29:45;19.10;;;10.33;;
20415;SDS011;10367;52.202;5.996;2023-05-24T02:32:14;20.07;;;9.03;;
20415;SDS011;10367;52.202;5.996;2023-05-24T02:34:45;24.07;;;10.27;;
20415;SDS011;10367;52.202;5.996;2023-05-24T02:37:15;18.13;;;10.40;;
20415;SDS011;10367;52.202;5.996;2023-05-24T02:39:44;12.77;;;10.00;;
20415;SDS011;10367;52.202;5.996;2023-05-24T02:42:13;14.87;;;9.83;;
20415;SDS011;10367;52.202;5.996;2023-05-24T02:44:42;15.50;;;8.60;;
20415;SDS011;10367;52.202;5.996;2023-05-24T02:47:13;16.20;;;9.23;;
20415;SDS011;10367;52.202;5.996;2023-05-24T02:49:42;17.53;;;9.00;;
20415;SDS011;10367;52.202;5.996;2023-05-24T02:52:13;14.77;;;9.57;;
20415;SDS011;10367;52.202;5.996;2023-05-24T02:54:41;25.33;;;9.47;;
20415;SDS011;10367;52.202;5.996;2023-05-24T02:57:10;13.90;;;9.63;;
20415;SDS011;10367;52.202;5.996;2023-05-24T02:59:39;16.47;;;9.50;;
20415;SDS011;10367;52.202;5.996;2023-05-24T03:02:08;12.80;;;9.50;;
20415;SDS011;10367;52.202;5.996;2023-05-24T03:04:39;11.70;;;9.47;;
20415;SDS011;10367;52.202;5.996;2023-05-24T03:07:09;13.97;;;9.37;;
20415;SDS011;10367;52.202;5.996;2023-05-24T03:09:40;13.53;;;8.87;;
20415;SDS011;10367;52.202;5.996;2023-05-24T03:12:10;14.43;;;9.30;;
20415;SDS011;10367;52.202;5.996;2023-05-24T03:14:42;12.63;;;9.57;;
20415;SDS011;10367;52.202;5.996;2023-05-24T03:17:14;11.37;;;9.63;;
20415;SDS011;10367;52.202;5.996;2023-05-24T03:19:43;15.40;;;10.10;;
20415;SDS011;10367;52.202;5.996;2023-05-24T03:22:13;13.50;;;10.03;;
20415;SDS011;10367;52.202;5.996;2023-05-24T03:24:42;18.30;;;9.77;;
20415;SDS011;10367;52.202;5.996;2023-05-24T03:27:12;17.63;;;10.60;;
20415;SDS011;10367;52.202;5.996;2023-05-24T03:29:41;17.57;;;10.93;;
20415;SDS011;10367;52.202;5.996;2023-05-24T03:32:10;19.87;;;10.77;;
20415;SDS011;10367;52.202;5.996;2023-05-24T03:34:39;13.37;;;9.90;;
20415;SDS011;10367;52.202;5.996;2023-05-24T03:37:08;12.73;;;9.93;;
20415;SDS011;10367;52.202;5.996;2023-05-24T03:39:41;13.30;;;9.63;;
20415;SDS011;10367;52.202;5.996;2023-05-24T03:42:10;16.37;;;10.13;;
20415;SDS011;10367;52.202;5.996;2023-05-24T03:44:41;18.07;;;9.47;;
20415;SDS011;10367;52.202;5.996;2023-05-24T03:47:15;13.60;;;9.90;;
20415;SDS011;10367;52.202;5.996;2023-05-24T03:49:44;11.73;;;9.33;;
20415;SDS011;10367;52.202;5.996;2023-05-24T03:52:13;14.53;;;10.50;;
20415;SDS011;10367;52.202;5.996;2023-05-24T03:54:45;11.67;;;10.07;;
20415;SDS011;10367;52.202;5.996;2023-05-24T03:57:15;14.57;;;10.30;;
20415;SDS011;10367;52.202;5.996;2023-05-24T03:59:47;11.47;;;10.13;;
20415;SDS011;10367;52.202;5.996;2023-05-24T04:02:15;19.70;;;11.00;;
20415;SDS011;10367;52.202;5.996;2023-05-24T04:04:44;12.97;;;9.60;;
20415;SDS011;10367;52.202;5.996;2023-05-24T04:07:13;15.23;;;11.10;;
20415;SDS011;10367;52.202;5.996;2023-05-24T04:09:42;12.77;;;10.73;;
20415;SDS011;10367;52.202;5.996;2023-05-24T04:12:12;12.67;;;10.13;;
20415;SDS011;10367;52.202;5.996;2023-05-24T04:14:41;14.73;;;10.43;;
20415;SDS011;10367;52.202;5.996;2023-05-24T04:17:10;18.80;;;10.40;;
20415;SDS011;10367;52.202;5.996;2023-05-24T04:19:39;10.90;;;9.50;;
20415;SDS011;10367;52.202;5.996;2023-05-24T04:22:12;15.27;;;10.20;;
20415;SDS011;10367;52.202;5.996;2023-05-24T04:24:41;17.53;;;10.33;;
20415;SDS011;10367;52.202;5.996;2023-05-24T04:27:10;19.30;;;12.50;;
20415;SDS011;10367;52.202;5.996;2023-05-24T04:29:41;14.70;;;11.47;;
20415;SDS011;10367;52.202;5.996;2023-05-24T04:32:11;16.30;;;10.63;;
20415;SDS011;10367;52.202;5.996;2023-05-24T04:34:43;15.33;;;11.20;;
20415;SDS011;10367;52.202;5.996;2023-05-24T04:37:12;17.87;;;12.50;;
20415;SDS011;10367;52.202;5.996;2023-05-24T04:39:43;17.30;;;10.97;;
20415;SDS011;10367;52.202;5.996;2023-05-24T04:42:14;14.77;;;11.30;;
20415;SDS011;10367;52.202;5.996;2023-05-24T04:44:43;15.23;;;11.17;;
20415;SDS011;10367;52.202;5.996;2023-05-24T04:47:12;17.80;;;11.73;;
20415;SDS011;10367;52.202;5.996;2023-05-24T04:49:42;16.23;;;12.47;;
20415;SDS011;10367;52.202;5.996;2023-05-24T04:52:11;14.90;;;11.47;;
20415;SDS011;10367;52.202;5.996;2023-05-24T04:54:42;20.77;;;12.27;;
20415;SDS011;10367;52.202;5.996;2023-05-24T04:57:11;21.33;;;12.30;;
20415;SDS011;10367;52.202;5.996;2023-05-24T04:59:41;15.97;;;11.83;;
20415;SDS011;10367;52.202;5.996;2023-05-24T05:02:11;17.23;;;12.40;;
20415;SDS011;10367;52.202;5.996;2023-05-24T05:04:40;19.27;;;12.80;;
20415;SDS011;10367;52.202;5.996;2023-05-24T05:07:09;20.63;;;12.93;;
20415;SDS011;10367;52.202;5.996;2023-05-24T05:09:37;17.70;;;13.33;;
20415;SDS011;10367;52.202;5.996;2023-05-24T05:12:07;16.33;;;13.07;;
20415;SDS011;10367;52.202;5.996;2023-05-24T05:14:36;20.03;;;14.00;;
20415;SDS011;10367;52.202;5.996;2023-05-24T05:17:06;17.63;;;13.30;;
20415;SDS011;10367;52.202;5.996;2023-05-24T05:19:38;20.43;;;12.80;;
20415;SDS011;10367;52.202;5.996;2023-05-24T05:22:09;23.87;;;13.97;;
20415;SDS011;10367;52.202;5.996;2023-05-24T05:24:38;22.43;;;12.60;;
20415;SDS011;10367;52.202;5.996;2023-05-24T05:27:08;25.37;;;13.53;;
20415;SDS011;10367;52.202;5.996;2023-05-24T05:29:40;20.60;;;12.63;;
20415;SDS011;10367;52.202;5.996;2023-05-24T05:34:59;22.13;;;13.60;;
20415;SDS011;10367;52.202;5.996;2023-05-24T05:37:28;20.53;;;13.40;;
20415;SDS011;10367;52.202;5.996;2023-05-24T05:39:57;15.97;;;11.67;;
20415;SDS011;10367;52.202;5.996;2023-05-24T05:42:26;13.83;;;12.43;;
20415;SDS011;10367;52.202;5.996;2023-05-24T05:44:55;16.40;;;12.03;;
20415;SDS011;10367;52.202;5.996;2023-05-24T05:47:24;21.93;;;14.10;;
20415;SDS011;10367;52.202;5.996;2023-05-24T05:49:57;15.27;;;11.53;;
20415;SDS011;10367;52.202;5.996;2023-05-24T05:52:26;24.57;;;13.40;;
20415;SDS011;10367;52.202;5.996;2023-05-24T05:54:55;27.27;;;14.47;;
20415;SDS011;10367;52.202;5.996;2023-05-24T05:57:25;21.53;;;12.20;;
20415;SDS011;10367;52.202;5.996;2023-05-24T05:59:55;18.77;;;12.17;;
20415;SDS011;10367;52.202;5.996;2023-05-24T06:02:25;15.10;;;12.40;;
20415;SDS011;10367;52.202;5.996;2023-05-24T06:04:54;12.97;;;11.63;;
20415;SDS011;10367;52.202;5.996;2023-05-24T06:07:25;14.67;;;11.37;;
20415;SDS011;10367;52.202;5.996;2023-05-24T06:12:42;22.00;;;11.50;;
20415;SDS011;10367;52.202;5.996;2023-05-24T06:15:11;24.53;;;12.97;;
20415;SDS011;10367;52.202;5.996;2023-05-24T06:17:40;14.07;;;12.47;;
20415;SDS011;10367;52.202;5.996;2023-05-24T06:20:10;17.17;;;12.63;;
20415;SDS011;10367;52.202;5.996;2023-05-24T06:22:43;21.70;;;12.87;;
20415;SDS011;10367;52.202;5.996;2023-05-24T06:25:14;18.60;;;12.63;;
20415;SDS011;10367;52.202;5.996;2023-05-24T06:27:45;18.73;;;13.80;;
20415;SDS011;10367;52.202;5.996;2023-05-24T06:30:14;15.90;;;12.77;;
20415;SDS011;10367;52.202;5.996;2023-05-24T06:32:43;17.73;;;12.43;;
20415;SDS011;10367;52.202;5.996;2023-05-24T06:35:11;20.90;;;14.67;;
20415;SDS011;10367;52.202;5.996;2023-05-24T06:37:40;14.20;;;12.70;;
20415;SDS011;10367;52.202;5.996;2023-05-24T06:40:11;19.03;;;13.77;;
20415;SDS011;10367;52.202;5.996;2023-05-24T06:42:40;22.40;;;14.00;;
20415;SDS011;10367;52.202;5.996;2023-05-24T06:45:09;14.67;;;13.20;;
20415;SDS011;10367;52.202;5.996;2023-05-24T06:47:39;36.17;;;14.53;;
20415;SDS011;10367;52.202;5.996;2023-05-24T06:50:08;16.27;;;13.83;;
20415;SDS011;10367;52.202;5.996;2023-05-24T06:52:37;19.73;;;13.63;;
20415;SDS011;10367;52.202;5.996;2023-05-24T06:55:08;13.50;;;11.97;;
20415;SDS011;10367;52.202;5.996;2023-05-24T06:57:37;21.17;;;13.60;;
20415;SDS011;10367;52.202;5.996;2023-05-24T07:00:07;22.77;;;14.00;;
20415;SDS011;10367;52.202;5.996;2023-05-24T07:02:38;18.07;;;13.83;;
20415;SDS011;10367;52.202;5.996;2023-05-24T07:05:08;17.83;;;13.67;;
20415;SDS011;10367;52.202;5.996;2023-05-24T07:07:38;18.53;;;14.37;;
20415;SDS011;10367;52.202;5.996;2023-05-24T07:10:10;13.60;;;12.40;;
20415;SDS011;10367;52.202;5.996;2023-05-24T07:12:45;15.37;;;13.87;;
20415;SDS011;10367;52.202;5.996;2023-05-24T07:15:14;14.53;;;12.70;;
20415;SDS011;10367;52.202;5.996;2023-05-24T07:17:43;16.97;;;13.70;;
20415;SDS011;10367;52.202;5.996;2023-05-24T07:20:12;16.43;;;13.17;;
20415;SDS011;10367;52.202;5.996;2023-05-24T07:22:42;24.13;;;14.40;;
20415;SDS011;10367;52.202;5.996;2023-05-24T07:25:12;20.47;;;13.03;;
20415;SDS011;10367;52.202;5.996;2023-05-24T07:27:41;17.63;;;13.70;;
20415;SDS011;10367;52.202;5.996;2023-05-24T07:30:11;16.03;;;14.43;;
20415;SDS011;10367;52.202;5.996;2023-05-24T07:32:58;19.43;;;13.23;;
20415;SDS011;10367;52.202;5.996;2023-05-24T07:35:29;17.23;;;13.60;;
20415;SDS011;10367;52.202;5.996;2023-05-24T07:37:58;15.20;;;13.73;;
20415;SDS011;10367;52.202;5.996;2023-05-24T07:40:29;21.90;;;15.23;;
20415;SDS011;10367;52.202;5.996;2023-05-24T07:42:58;14.37;;;13.00;;
20415;SDS011;10367;52.202;5.996;2023-05-24T07:45:27;20.53;;;15.07;;
20415;SDS011;10367;52.202;5.996;2023-05-24T07:47:56;15.43;;;13.87;;
20415;SDS011;10367;52.202;5.996;2023-05-24T07:50:25;19.53;;;15.33;;
20415;SDS011;10367;52.202;5.996;2023-05-24T07:52:55;22.13;;;15.70;;
20415;SDS011;10367;52.202;5.996;2023-05-24T07:55:24;18.07;;;16.23;;
20415;SDS011;10367;52.202;5.996;2023-05-24T07:57:55;17.60;;;14.53;;
20415;SDS011;10367;52.202;5.996;2023-05-24T08:00:24;15.60;;;14.00;;
20415;SDS011;10367;52.202;5.996;2023-05-24T08:02:53;15.70;;;14.13;;
20415;SDS011;10367;52.202;5.996;2023-05-24T08:05:22;21.77;;;15.63;;
20415;SDS011;10367;52.202;5.996;2023-05-24T08:07:51;16.00;;;14.43;;
20415;SDS011;10367;52.202;5.996;2023-05-24T08:10:20;20.77;;;15.07;;
20415;SDS011;10367;52.202;5.996;2023-05-24T08:12:49;17.83;;;16.00;;
20415;SDS011;10367;52.202;5.996;2023-05-24T08:15:22;23.17;;;16.10;;
20415;SDS011;10367;52.202;5.996;2023-05-24T08:17:50;16.57;;;15.00;;
20415;SDS011;10367;52.202;5.996;2023-05-24T08:20:19;28.27;;;15.30;;
20415;SDS011;10367;52.202;5.996;2023-05-24T08:22:48;21.17;;;16.50;;
20415;SDS011;10367;52.202;5.996;2023-05-24T08:25:17;16.67;;;15.27;;
20415;SDS011;10367;52.202;5.996;2023-05-24T08:27:47;18.93;;;15.97;;
20415;SDS011;10367;52.202;5.996;2023-05-24T08:30:16;16.60;;;14.87;;
20415;SDS011;10367;52.202;5.996;2023-05-24T08:32:47;20.67;;;16.30;;
20415;SDS011;10367;52.202;5.996;2023-05-24T08:35:16;18.93;;;15.60;;
20415;SDS011;10367;52.202;5.996;2023-05-24T08:37:47;17.37;;;15.73;;
20415;SDS011;10367;52.202;5.996;2023-05-24T08:40:17;21.17;;;15.33;;
20415;SDS011;10367;52.202;5.996;2023-05-24T08:42:46;18.03;;;15.90;;
20415;SDS011;10367;52.202;5.996;2023-05-24T08:45:16;18.23;;;16.47;;
20415;SDS011;10367;52.202;5.996;2023-05-24T08:47:50;19.77;;;17.13;;
20415;SDS011;10367;52.202;5.996;2023-05-24T08:50:19;20.97;;;16.50;;
20415;SDS011;10367;52.202;5.996;2023-05-24T08:52:49;20.33;;;17.20;;
20415;SDS011;10367;52.202;5.996;2023-05-24T08:55:19;17.73;;;16.03;;
20415;SDS011;10367;52.202;5.996;2023-05-24T08:57:48;18.53;;;16.57;;
20415;SDS011;10367;52.202;5.996;2023-05-24T09:00:19;18.20;;;16.33;;
20415;SDS011;10367;52.202;5.996;2023-05-24T09:02:50;19.00;;;16.87;;
20415;SDS011;10367;52.202;5.996;2023-05-24T09:05:19;18.97;;;16.97;;
20415;SDS011;10367;52.202;5.996;2023-05-24T09:07:49;21.27;;;17.80;;
20415;SDS011;10367;52.202;5.996;2023-05-24T09:10:18;20.10;;;17.70;;
20415;SDS011;10367;52.202;5.996;2023-05-24T09:12:50;18.23;;;16.73;;
20415;SDS011;10367;52.202;5.996;2023-05-24T09:15:23;18.77;;;16.87;;
20415;SDS011;10367;52.202;5.996;2023-05-24T09:17:54;18.87;;;16.67;;
20415;SDS011;10367;52.202;5.996;2023-05-24T09:20:24;16.93;;;15.43;;
20415;SDS011;10367;52.202;5.996;2023-05-24T09:22:56;20.13;;;17.90;;
20415;SDS011;10367;52.202;5.996;2023-05-24T09:25:28;17.53;;;16.23;;
20415;SDS011;10367;52.202;5.996;2023-05-24T09:28:00;17.43;;;15.97;;
20415;SDS011;10367;52.202;5.996;2023-05-24T09:30:34;18.07;;;16.37;;
20415;SDS011;10367;52.202;5.996;2023-05-24T09:33:05;18.33;;;16.40;;
20415;SDS011;10367;52.202;5.996;2023-05-24T09:35:40;18.80;;;17.13;;
20415;SDS011;10367;52.202;5.996;2023-05-24T09:38:15;17.93;;;16.37;;
20415;SDS011;10367;52.202;5.996;2023-05-24T09:40:45;18.00;;;16.43;;
20415;SDS011;10367;52.202;5.996;2023-05-24T09:43:14;18.90;;;17.20;;
20415;SDS011;10367;52.202;5.996;2023-05-24T09:45:43;20.07;;;16.87;;
20415;SDS011;10367;52.202;5.996;2023-05-24T09:48:16;20.47;;;18.30;;
20415;SDS011;10367;52.202;5.996;2023-05-24T09:50:49;22.47;;;19.67;;
20415;SDS011;10367;52.202;5.996;2023-05-24T09:53:27;21.03;;;18.87;;
20415;SDS011;10367;52.202;5.996;2023-05-24T09:55:56;16.93;;;15.63;;
20415;SDS011;10367;52.202;5.996;2023-05-24T09:58:28;19.83;;;17.17;;
20415;SDS011;10367;52.202;5.996;2023-05-24T10:01:04;20.33;;;17.00;;
20415;SDS011;10367;52.202;5.996;2023-05-24T10:03:36;21.47;;;19.10;;
20415;SDS011;10367;52.202;5.996;2023-05-24T10:06:05;18.87;;;17.20;;
20415;SDS011;10367;52.202;5.996;2023-05-24T10:08:35;20.27;;;18.20;;
20415;SDS011;10367;52.202;5.996;2023-05-24T10:11:03;18.73;;;16.80;;
20415;SDS011;10367;52.202;5.996;2023-05-24T10:13:32;18.93;;;17.07;;
20415;SDS011;10367;52.202;5.996;2023-05-24T10:16:03;19.43;;;17.53;;
20415;SDS011;10367;52.202;5.996;2023-05-24T10:18:32;19.43;;;17.73;;
20415;SDS011;10367;52.202;5.996;2023-05-24T10:21:03;18.53;;;17.20;;
20415;SDS011;10367;52.202;5.996;2023-05-24T10:23:36;18.87;;;16.97;;
20415;SDS011;10367;52.202;5.996;2023-05-24T10:26:06;20.17;;;18.10;;
20415;SDS011;10367;52.202;5.996;2023-05-24T10:28:39;19.97;;;17.93;;
20415;SDS011;10367;52.202;5.996;2023-05-24T10:31:12;23.27;;;18.70;;
20415;SDS011;10367;52.202;5.996;2023-05-24T10:33:45;20.20;;;18.20;;
20415;SDS011;10367;52.202;5.996;2023-05-24T10:36:19;20.60;;;18.60;;
20415;SDS011;10367;52.202;5.996;2023-05-24T10:38:49;19.20;;;17.43;;
20415;SDS011;10367;52.202;5.996;2023-05-24T10:41:18;26.00;;;18.67;;
20415;SDS011;10367;52.202;5.996;2023-05-24T10:43:48;20.53;;;18.83;;
20415;SDS011;10367;52.202;5.996;2023-05-24T10:46:35;21.50;;;19.40;;
20415;SDS011;10367;52.202;5.996;2023-05-24T10:49:25;20.47;;;18.37;;
20415;SDS011;10367;52.202;5.996;2023-05-24T10:52:00;19.57;;;18.10;;
20415;SDS011;10367;52.202;5.996;2023-05-24T10:54:30;21.70;;;19.53;;
20415;SDS011;10367;52.202;5.996;2023-05-24T10:56:59;21.67;;;18.17;;
20415;SDS011;10367;52.202;5.996;2023-05-24T10:59:31;19.87;;;18.20;;
20415;SDS011;10367;52.202;5.996;2023-05-24T11:02:05;19.90;;;18.30;;
20415;SDS011;10367;52.202;5.996;2023-05-24T11:04:40;22.03;;;19.83;;
20415;SDS011;10367;52.202;5.996;2023-05-24T11:07:12;20.20;;;18.70;;
20415;SDS011;10367;52.202;5.996;2023-05-24T11:09:42;20.73;;;18.93;;
20415;SDS011;10367;52.202;5.996;2023-05-24T11:12:18;21.00;;;19.20;;
20415;SDS011;10367;52.202;5.996;2023-05-24T11:14:47;19.53;;;17.90;;
20415;SDS011;10367;52.202;5.996;2023-05-24T11:17:18;21.20;;;19.13;;
20415;SDS011;10367;52.202;5.996;2023-05-24T11:19:49;20.23;;;18.37;;
20415;SDS011;10367;52.202;5.996;2023-05-24T11:22:21;21.00;;;18.70;;
20415;SDS011;10367;52.202;5.996;2023-05-24T11:24:52;19.13;;;17.60;;
20415;SDS011;10367;52.202;5.996;2023-05-24T11:27:23;22.53;;;20.27;;
20415;SDS011;10367;52.202;5.996;2023-05-24T11:29:52;20.13;;;18.33;;
20415;SDS011;10367;52.202;5.996;2023-05-24T11:32:21;18.33;;;17.13;;
20415;SDS011;10367;52.202;5.996;2023-05-24T11:34:51;20.17;;;18.67;;
20415;SDS011;10367;52.202;5.996;2023-05-24T11:37:21;22.10;;;19.90;;
20415;SDS011;10367;52.202;5.996;2023-05-24T11:40:10;20.63;;;18.67;;
20415;SDS011;10367;52.202;5.996;2023-05-24T11:42:42;22.63;;;20.47;;
20415;SDS011;10367;52.202;5.996;2023-05-24T11:45:11;20.23;;;18.53;;
20415;SDS011;10367;52.202;5.996;2023-05-24T11:47:41;20.07;;;18.43;;
20415;SDS011;10367;52.202;5.996;2023-05-24T11:50:11;20.57;;;19.10;;
20415;SDS011;10367;52.202;5.996;2023-05-24T11:52:45;21.27;;;19.30;;
20415;SDS011;10367;52.202;5.996;2023-05-24T11:55:13;20.60;;;19.13;;
20415;SDS011;10367;52.202;5.996;2023-05-24T11:57:52;20.60;;;19.03;;
20415;SDS011;10367;52.202;5.996;2023-05-24T12:00:25;20.70;;;18.97;;
20415;SDS011;10367;52.202;5.996;2023-05-24T12:02:55;20.97;;;19.07;;
20415;SDS011;10367;52.202;5.996;2023-05-24T12:05:27;21.27;;;19.53;;
20415;SDS011;10367;52.202;5.996;2023-05-24T12:08:03;20.90;;;19.03;;
20415;SDS011;10367;52.202;5.996;2023-05-24T12:10:37;22.20;;;19.97;;
20415;SDS011;10367;52.202;5.996;2023-05-24T12:13:17;20.73;;;19.03;;
20415;SDS011;10367;52.202;5.996;2023-05-24T12:15:49;20.97;;;19.17;;
20415;SDS011;10367;52.202;5.996;2023-05-24T12:18:22;20.53;;;19.07;;
20415;SDS011;10367;52.202;5.996;2023-05-24T12:20:53;19.97;;;18.57;;
20415;SDS011;10367;52.202;5.996;2023-05-24T12:23:24;21.03;;;18.97;;
20415;SDS011;10367;52.202;5.996;2023-05-24T12:25:57;20.43;;;18.83;;
20415;SDS011;10367;52.202;5.996;2023-05-24T12:28:27;21.60;;;20.07;;
20415;SDS011;10367;52.202;5.996;2023-05-24T12:31:02;21.53;;;19.93;;
20415;SDS011;10367;52.202;5.996;2023-05-24T12:33:32;22.40;;;20.37;;
20415;SDS011;10367;52.202;5.996;2023-05-24T12:36:01;21.20;;;18.97;;
20415;SDS011;10367;52.202;5.996;2023-05-24T12:38:32;22.60;;;20.67;;
20415;SDS011;10367;52.202;5.996;2023-05-24T12:41:01;20.83;;;19.10;;
20415;SDS011;10367;52.202;5.996;2023-05-24T12:43:40;19.83;;;18.20;;
20415;SDS011;10367;52.202;5.996;2023-05-24T12:46:10;21.50;;;19.63;;
20415;SDS011;10367;52.202;5.996;2023-05-24T12:48:40;20.83;;;19.23;;
20415;SDS011;10367;52.202;5.996;2023-05-24T12:51:09;21.67;;;19.80;;
20415;SDS011;10367;52.202;5.996;2023-05-24T12:53:39;20.80;;;19.07;;
20415;SDS011;10367;52.202;5.996;2023-05-24T12:56:09;19.13;;;17.63;;
20415;SDS011;10367;52.202;5.996;2023-05-24T12:58:38;20.83;;;19.20;;
20415;SDS011;10367;52.202;5.996;2023-05-24T13:01:08;22.77;;;19.20;;
20415;SDS011;10367;52.202;5.996;2023-05-24T13:03:37;19.87;;;18.33;;
20415;SDS011;10367;52.202;5.996;2023-05-24T13:06:06;19.63;;;18.07;;
20415;SDS011;10367;52.202;5.996;2023-05-24T13:08:36;21.63;;;19.73;;
20415;SDS011;10367;52.202;5.996;2023-05-24T13:11:08;20.30;;;18.67;;
20415;SDS011;10367;52.202;5.996;2023-05-24T13:13:37;22.30;;;20.27;;
20415;SDS011;10367;52.202;5.996;2023-05-24T13:16:12;20.73;;;19.03;;
20415;SDS011;10367;52.202;5.996;2023-05-24T13:18:41;21.20;;;19.57;;
20415;SDS011;10367;52.202;5.996;2023-05-24T13:21:12;22.40;;;20.40;;
20415;SDS011;10367;52.202;5.996;2023-05-24T13:23:41;22.03;;;19.93;;
20415;SDS011;10367;52.202;5.996;2023-05-24T13:26:12;23.20;;;21.00;;
20415;SDS011;10367;52.202;5.996;2023-05-24T13:28:41;22.53;;;20.37;;
20415;SDS011;10367;52.202;5.996;2023-05-24T13:31:30;22.07;;;20.10;;
20415;SDS011;10367;52.202;5.996;2023-05-24T13:33:59;20.23;;;18.93;;
20415;SDS011;10367;52.202;5.996;2023-05-24T13:36:29;22.80;;;20.47;;
20415;SDS011;10367;52.202;5.996;2023-05-24T13:38:58;20.50;;;18.70;;
20415;SDS011;10367;52.202;5.996;2023-05-24T13:41:43;22.17;;;20.20;;
20415;SDS011;10367;52.202;5.996;2023-05-24T13:44:13;21.43;;;19.57;;
20415;SDS011;10367;52.202;5.996;2023-05-24T13:46:43;21.67;;;19.73;;
20415;SDS011;10367;52.202;5.996;2023-05-24T13:49:12;19.50;;;17.97;;
20415;SDS011;10367;52.202;5.996;2023-05-24T13:51:41;21.87;;;19.80;;
20415;SDS011;10367;52.202;5.996;2023-05-24T13:54:10;21.60;;;20.00;;
20415;SDS011;10367;52.202;5.996;2023-05-24T13:56:39;21.47;;;19.73;;
20415;SDS011;10367;52.202;5.996;2023-05-24T13:59:11;21.87;;;19.80;;
20415;SDS011;10367;52.202;5.996;2023-05-24T14:01:40;24.90;;;19.33;;
20415;SDS011;10367;52.202;5.996;2023-05-24T14:04:09;21.30;;;19.33;;
20415;SDS011;10367;52.202;5.996;2023-05-24T14:06:38;23.63;;;21.23;;
20415;SDS011;10367;52.202;5.996;2023-05-24T14:09:07;21.60;;;19.80;;
20415;SDS011;10367;52.202;5.996;2023-05-24T14:11:36;20.73;;;18.97;;
20415;SDS011;10367;52.202;5.996;2023-05-24T14:14:06;20.73;;;18.97;;
20415;SDS011;10367;52.202;5.996;2023-05-24T14:16:42;21.43;;;19.63;;
20415;SDS011;10367;52.202;5.996;2023-05-24T14:19:10;22.00;;;19.87;;
20415;SDS011;10367;52.202;5.996;2023-05-24T14:21:39;22.90;;;20.53;;
20415;SDS011;10367;52.202;5.996;2023-05-24T14:24:08;20.37;;;18.67;;
20415;SDS011;10367;52.202;5.996;2023-05-24T14:26:38;20.90;;;18.77;;
20415;SDS011;10367;52.202;5.996;2023-05-24T14:29:08;23.63;;;21.30;;
20415;SDS011;10367;52.202;5.996;2023-05-24T14:31:37;21.43;;;19.50;;
20415;SDS011;10367;52.202;5.996;2023-05-24T14:34:10;21.17;;;19.33;;
20415;SDS011;10367;52.202;5.996;2023-05-24T14:36:39;20.37;;;18.30;;
20415;SDS011;10367;52.202;5.996;2023-05-24T14:39:09;21.30;;;19.23;;
20415;SDS011;10367;52.202;5.996;2023-05-24T14:41:40;21.23;;;19.37;;
20415;SDS011;10367;52.202;5.996;2023-05-24T14:44:09;20.43;;;18.63;;
20415;SDS011;10367;52.202;5.996;2023-05-24T14:46:38;20.70;;;17.97;;
20415;SDS011;10367;52.202;5.996;2023-05-24T14:49:10;19.13;;;17.53;;